Time;durP1;ratioP1;P1;durP2;ratioP2;P2;SDS_P1;SDS_P2;PMS_P1;PMS_P2;Temp;Humidity;BMP_temperature;BMP_pressure;BME280_temperature;BME280_humidity;BME280_pressure;Samples;Min_cycle;Max_cycle;Signal;HPM_P1;HPM_P2
2022/09/29 00:02:28;;;;;;;7.60;4.22;;;;;;;;;;10388311;22;20020;-85
2022/09/29 00:06:31;;;;;;;8.88;4.15;;;;;;;;;;10388312;22;20019;-85
2022/09/29 00:10:34;;;;;;;7.70;4.20;;;;;;;;;;10388281;22;20050;-85
2022/09/29 00:14:37;;;;;;;8.05;4.57;;;;;;;;;;10388424;22;20482;-85
2022/09/29 00:18:39;;;;;;;7.72;4.18;;;;;;;;;;10388129;22;20086;-86
2022/09/29 00:22:42;;;;;;;7.15;4.18;;;;;;;;;;10387984;22;20020;-85
2022/09/29 00:26:46;;;;;;;8.80;4.22;;;;;;;;;;10387808;22;20016;-86
2022/09/29 00:30:48;;;;;;;6.65;3.92;;;;;;;;;;10387811;22;20026;-86
2022/09/29 00:34:51;;;;;;;7.70;4.30;;;;;;;;;;10387851;22;20054;-86
2022/09/29 00:38:53;;;;;;;10.15;4.63;;;;;;;;;;10387503;22;20462;-86
2022/09/29 00:42:57;;;;;;;7.53;4.22;;;;;;;;;;10387237;22;20348;-86
2022/09/29 00:47:03;;;;;;;8.82;4.47;;;;;;;;;;10387522;22;20015;-86
2022/09/29 00:51:06;;;;;;;8.02;4.20;;;;;;;;;;10387349;22;20607;-86
2022/09/29 00:55:13;;;;;;;8.38;4.22;;;;;;;;;;10387613;22;20042;-86
2022/09/29 00:59:22;;;;;;;7.80;4.13;;;;;;;;;;10404522;22;20015;-86
2022/09/29 01:03:29;;;;;;;9.77;4.20;;;;;;;;;;10404253;22;20514;-85
2022/09/29 01:07:32;;;;;;;8.55;4.07;;;;;;;;;;10387321;22;20102;-85
2022/09/29 01:11:36;;;;;;;8.77;4.53;;;;;;;;;;10386860;22;20019;-85
2022/09/29 01:15:40;;;;;;;7.13;4.57;;;;;;;;;;10387161;22;20016;-86
2022/09/29 01:19:51;;;;;;;9.23;4.78;;;;;;;;;;10387730;22;20321;-85
2022/09/29 01:24:29;;;;;;;7.45;4.55;;;;;;;;;;10404281;22;20043;-85
2022/09/29 01:29:09;;;;;;;9.07;5.20;;;;;;;;;;10404145;22;20471;-86
2022/09/29 01:33:29;;;;;;;6.95;4.13;;;;;;;;;;10387291;22;20016;-86
2022/09/29 01:37:45;;;;;;;8.63;4.63;;;;;;;;;;10395071;22;20024;-86
2022/09/29 01:41:51;;;;;;;9.75;5.18;;;;;;;;;;10404097;22;20087;-85
2022/09/29 01:46:01;;;;;;;9.35;5.35;;;;;;;;;;10404085;22;20023;-86
2022/09/29 01:50:10;;;;;;;9.48;5.53;;;;;;;;;;10403482;22;20401;-85
2022/09/29 01:54:17;;;;;;;9.90;5.63;;;;;;;;;;10404041;22;20098;-86
2022/09/29 01:58:25;;;;;;;10.63;5.90;;;;;;;;;;10386951;22;20020;-86
2022/09/29 02:02:34;;;;;;;10.25;5.28;;;;;;;;;;10406365;22;20044;-86
2022/09/29 02:06:43;;;;;;;11.77;5.93;;;;;;;;;;10407130;22;20336;-85
2022/09/29 02:10:50;;;;;;;9.05;5.35;;;;;;;;;;10407166;22;20024;-86
2022/09/29 02:14:54;;;;;;;10.93;6.45;;;;;;;;;;10406346;22;20077;-86
2022/09/29 02:19:01;;;;;;;15.00;5.85;;;;;;;;;;10390006;22;20019;-85
2022/09/29 02:23:05;;;;;;;11.40;6.03;;;;;;;;;;10405902;22;20015;-86
2022/09/29 02:27:07;;;;;;;17.17;7.50;;;;;;;;;;10388283;22;20051;-86
2022/09/29 02:31:10;;;;;;;14.65;8.90;;;;;;;;;;10389123;22;20348;-86
2022/09/29 02:35:14;;;;;;;13.25;7.90;;;;;;;;;;10387950;22;20128;-87
2022/09/29 02:39:36;;;;;;;14.32;7.53;;;;;;;;;;10388813;22;20020;-86
2022/09/29 02:44:05;;;;;;;16.30;6.97;;;;;;;;;;10405397;22;20019;-86
2022/09/29 02:48:35;;;;;;;11.93;6.40;;;;;;;;;;10404776;22;20034;-86
2022/09/29 02:52:49;;;;;;;10.57;6.72;;;;;;;;;;10405280;22;20432;-86
2022/09/29 02:57:01;;;;;;;14.07;7.65;;;;;;;;;;10387935;22;20117;-87
2022/09/29 03:01:04;;;;;;;13.13;7.28;;;;;;;;;;10404945;22;20098;-86
2022/09/29 03:05:09;;;;;;;13.40;8.15;;;;;;;;;;10388566;22;20437;-86
2022/09/29 03:09:12;;;;;;;13.82;7.50;;;;;;;;;;10404944;22;20340;-87
2022/09/29 03:13:16;;;;;;;14.85;8.20;;;;;;;;;;10388354;22;20019;-87
2022/09/29 03:17:18;;;;;;;17.73;7.50;;;;;;;;;;10387909;22;20471;-86
2022/09/29 03:21:21;;;;;;;16.85;7.75;;;;;;;;;;10388307;22;20078;-86
2022/09/29 03:25:23;;;;;;;18.52;8.02;;;;;;;;;;10388218;22;20065;-86
2022/09/29 03:29:28;;;;;;;14.95;8.02;;;;;;;;;;10387756;22;20017;-88
2022/09/29 03:33:31;;;;;;;17.45;8.45;;;;;;;;;;10405074;22;20047;-86
2022/09/29 03:37:33;;;;;;;17.27;9.13;;;;;;;;;;10387769;22;20023;-85
2022/09/29 03:41:36;;;;;;;17.00;8.70;;;;;;;;;;10388079;22;20023;-87
2022/09/29 03:45:48;;;;;;;12.57;6.90;;;;;;;;;;10388285;22;20452;-86
2022/09/29 03:49:50;;;;;;;10.70;6.70;;;;;;;;;;10405132;22;20020;-86
2022/09/29 03:53:54;;;;;;;13.95;7.22;;;;;;;;;;10388752;22;20475;-87
2022/09/29 03:57:56;;;;;;;14.10;7.32;;;;;;;;;;10387770;22;20019;-86
2022/09/29 04:02:02;;;;;;;12.15;7.47;;;;;;;;;;10389343;22;20024;-87
2022/09/29 04:06:06;;;;;;;13.75;7.20;;;;;;;;;;10404761;22;20102;-87
2022/09/29 04:10:09;;;;;;;14.48;8.43;;;;;;;;;;10387342;22;20030;-85
2022/09/29 04:14:11;;;;;;;13.35;7.13;;;;;;;;;;10387151;22;20080;-86
2022/09/29 04:18:16;;;;;;;12.95;7.80;;;;;;;;;;10387481;22;20022;-86
2022/09/29 04:22:18;;;;;;;14.40;7.78;;;;;;;;;;10387816;22;20019;-87
2022/09/29 04:26:20;;;;;;;14.75;7.72;;;;;;;;;;10387235;22;20027;-86
2022/09/29 04:30:23;;;;;;;14.73;6.95;;;;;;;;;;10386886;22;20020;-88
2022/09/29 04:34:26;;;;;;;11.43;7.25;;;;;;;;;;10387309;22;20027;-86
2022/09/29 04:38:30;;;;;;;18.63;9.15;;;;;;;;;;10387370;22;20020;-86
2022/09/29 04:42:32;;;;;;;19.60;9.68;;;;;;;;;;10387948;22;20020;-85
2022/09/29 04:46:34;;;;;;;12.93;7.35;;;;;;;;;;10387429;22;20015;-86
2022/09/29 04:50:38;;;;;;;14.60;7.32;;;;;;;;;;10387750;22;20015;-85
2022/09/29 04:54:41;;;;;;;18.85;8.75;;;;;;;;;;10387244;22;20462;-85
2022/09/29 04:58:43;;;;;;;17.52;10.38;;;;;;;;;;10387677;22;20026;-86
2022/09/29 05:02:46;;;;;;;18.27;9.82;;;;;;;;;;10387610;22;20089;-86
2022/09/29 05:06:50;;;;;;;14.48;8.60;;;;;;;;;;10387230;22;20016;-86
2022/09/29 05:10:52;;;;;;;14.07;7.70;;;;;;;;;;10387347;22;20047;-86
2022/09/29 05:14:54;;;;;;;14.88;8.02;;;;;;;;;;10387412;22;20026;-86
2022/09/29 05:18:57;;;;;;;14.00;7.80;;;;;;;;;;10387155;22;20015;-85
2022/09/29 05:23:01;;;;;;;12.05;7.43;;;;;;;;;;10387236;22;20019;-87
2022/09/29 05:27:04;;;;;;;11.65;7.18;;;;;;;;;;10385736;22;20027;-85
2022/09/29 05:31:07;;;;;;;10.32;6.30;;;;;;;;;;10387536;22;20023;-86
2022/09/29 05:35:10;;;;;;;12.10;7.00;;;;;;;;;;10387639;22;20081;-85
2022/09/29 05:39:14;;;;;;;14.20;7.70;;;;;;;;;;10390901;22;20034;-85
2022/09/29 05:43:17;;;;;;;14.07;7.93;;;;;;;;;;10390702;22;20091;-86
2022/09/29 05:47:19;;;;;;;12.07;7.25;;;;;;;;;;10390625;22;20383;-86
2022/09/29 05:51:25;;;;;;;12.40;7.85;;;;;;;;;;10390620;22;20487;-86
2022/09/29 05:55:29;;;;;;;14.82;7.60;;;;;;;;;;10396064;22;20077;-87
2022/09/29 05:59:31;;;;;;;11.57;6.82;;;;;;;;;;10390555;22;20087;-87
2022/09/29 06:03:35;;;;;;;16.90;8.18;;;;;;;;;;10390579;22;20020;-86
2022/09/29 06:07:37;;;;;;;12.07;7.63;;;;;;;;;;10390326;22;20019;-86
2022/09/29 06:11:41;;;;;;;13.45;7.80;;;;;;;;;;10390392;22;20019;-86
2022/09/29 06:15:43;;;;;;;12.73;7.65;;;;;;;;;;10390024;22;20016;-87
2022/09/29 06:19:46;;;;;;;11.00;6.80;;;;;;;;;;10390305;22;20074;-86
2022/09/29 06:23:48;;;;;;;11.15;6.68;;;;;;;;;;10390274;22;20020;-86
2022/09/29 06:27:52;;;;;;;11.55;7.05;;;;;;;;;;10390153;22;20462;-86
2022/09/29 06:31:55;;;;;;;14.55;7.47;;;;;;;;;;10389938;22;20020;-85
2022/09/29 06:40:22;;;;;;;11.45;6.97;;;;;;;;;;10358154;22;20028;-87
2022/09/29 06:44:29;;;;;;;14.25;7.57;;;;;;;;;;10401802;22;20030;-87
2022/09/29 06:48:36;;;;;;;11.52;6.95;;;;;;;;;;10400956;22;20348;-87
2022/09/29 06:52:40;;;;;;;13.73;7.47;;;;;;;;;;10357143;22;20026;-87
2022/09/29 06:56:51;;;;;;;14.57;8.27;;;;;;;;;;10356737;22;20127;-88
2022/09/29 07:01:05;;;;;;;12.20;6.18;;;;;;;;;;10401452;22;20098;-86
2022/09/29 07:05:10;;;;;;;13.13;6.88;;;;;;;;;;10401114;22;20020;-87
2022/09/29 07:09:15;;;;;;;10.55;6.80;;;;;;;;;;10383842;22;20066;-87
2022/09/29 07:13:18;;;;;;;12.65;8.02;;;;;;;;;;10392575;22;20050;-87
2022/09/29 07:17:22;;;;;;;12.13;7.32;;;;;;;;;;10384771;22;20107;-88
2022/09/29 07:21:25;;;;;;;10.80;7.03;;;;;;;;;;10383616;22;20024;-87
2022/09/29 07:25:31;;;;;;;9.30;6.43;;;;;;;;;;10384592;22;20011;-87
2022/09/29 07:29:34;;;;;;;12.52;6.80;;;;;;;;;;10356854;22;20030;-86
2022/09/29 07:33:40;;;;;;;12.30;6.20;;;;;;;;;;10384030;22;20015;-86
2022/09/29 07:37:51;;;;;;;8.65;5.80;;;;;;;;;;10400583;22;20028;-87
2022/09/29 07:41:55;;;;;;;10.30;6.53;;;;;;;;;;10401251;22;20080;-88
2022/09/29 07:45:59;;;;;;;13.18;8.07;;;;;;;;;;10383308;22;20012;-87
2022/09/29 07:50:02;;;;;;;13.32;7.45;;;;;;;;;;10384423;22;20185;-87
2022/09/29 07:54:05;;;;;;;15.13;8.00;;;;;;;;;;10382808;22;20103;-86
2022/09/29 07:58:12;;;;;;;20.67;10.70;;;;;;;;;;10383373;22;20451;-87
2022/09/29 08:02:21;;;;;;;13.82;8.25;;;;;;;;;;10400626;22;20019;-87
2022/09/29 08:06:26;;;;;;;17.40;9.15;;;;;;;;;;10400354;22;20027;-87
2022/09/29 08:10:30;;;;;;;11.65;6.57;;;;;;;;;;10401597;22;20054;-87
2022/09/29 08:14:33;;;;;;;9.93;5.30;;;;;;;;;;10383488;22;20030;-87
2022/09/29 08:18:37;;;;;;;10.50;6.18;;;;;;;;;;10382696;22;20096;-86
2022/09/29 08:22:41;;;;;;;12.82;7.30;;;;;;;;;;10385126;22;20460;-86
2022/09/29 08:26:45;;;;;;;8.73;5.28;;;;;;;;;;10383455;22;20093;-87
2022/09/29 08:31:19;;;;;;;7.25;5.45;;;;;;;;;;10402000;22;20077;-88
2022/09/29 08:35:21;;;;;;;10.77;6.25;;;;;;;;;;10401889;22;20121;-88
2022/09/29 08:39:25;;;;;;;7.55;4.80;;;;;;;;;;10383764;22;20073;-87
2022/09/29 08:43:32;;;;;;;14.63;5.63;;;;;;;;;;10385739;22;20019;-87
2022/09/29 08:47:38;;;;;;;6.75;4.50;;;;;;;;;;10400874;22;20055;-86
2022/09/29 08:51:46;;;;;;;7.28;4.55;;;;;;;;;;10402659;22;20015;-87
2022/09/29 08:55:54;;;;;;;5.43;3.90;;;;;;;;;;10401903;22;20015;-88
2022/09/29 08:59:59;;;;;;;7.13;3.58;;;;;;;;;;10388763;22;20459;-88
2022/09/29 09:04:29;;;;;;;6.15;3.83;;;;;;;;;;10386728;22;20019;-88
2022/09/29 09:08:49;;;;;;;5.45;3.88;;;;;;;;;;10387184;22;20068;-88
2022/09/29 09:13:05;;;;;;;5.15;3.45;;;;;;;;;;10403837;22;20445;-89
2022/09/29 09:17:21;;;;;;;5.00;3.20;;;;;;;;;;10399387;22;20471;-87
2022/09/29 09:21:34;;;;;;;6.20;4.15;;;;;;;;;;10402954;22;20023;-87
2022/09/29 09:25:40;;;;;;;7.28;3.72;;;;;;;;;;10402796;22;20566;-87
2022/09/29 09:29:45;;;;;;;5.80;3.47;;;;;;;;;;10403468;22;20020;-88
2022/09/29 09:33:53;;;;;;;5.40;3.40;;;;;;;;;;10403410;22;20026;-89
2022/09/29 09:38:00;;;;;;;5.60;3.15;;;;;;;;;;10402799;22;20020;-89
2022/09/29 09:42:09;;;;;;;4.40;3.35;;;;;;;;;;10403094;22;20440;-88
2022/09/29 09:46:20;;;;;;;6.65;3.45;;;;;;;;;;10402503;22;20016;-88
2022/09/29 09:50:25;;;;;;;6.22;4.07;;;;;;;;;;10385497;22;20336;-88
2022/09/29 09:54:33;;;;;;;4.40;2.85;;;;;;;;;;10386994;22;20015;-88
2022/09/29 09:58:55;;;;;;;5.03;3.42;;;;;;;;;;10403759;22;20023;-88
2022/09/29 10:03:06;;;;;;;8.13;3.67;;;;;;;;;;10403904;22;20020;-88
2022/09/29 10:07:08;;;;;;;4.65;2.95;;;;;;;;;;10359801;22;20090;-87
2022/09/29 10:11:25;;;;;;;4.63;3.10;;;;;;;;;;10387080;22;20340;-88
2022/09/29 10:15:33;;;;;;;4.03;2.72;;;;;;;;;;10403866;22;20098;-88
2022/09/29 10:19:57;;;;;;;5.57;3.25;;;;;;;;;;10389705;22;20482;-88
2022/09/29 10:24:00;;;;;;;3.45;2.60;;;;;;;;;;10389866;22;20023;-87
2022/09/29 10:28:04;;;;;;;5.80;3.13;;;;;;;;;;10390019;22;20019;-87
2022/09/29 10:32:09;;;;;;;5.28;3.38;;;;;;;;;;10389856;22;20103;-87
2022/09/29 10:36:13;;;;;;;5.82;3.13;;;;;;;;;;10390279;22;20018;-88
2022/09/29 10:40:22;;;;;;;4.90;3.00;;;;;;;;;;10389820;22;20103;-88
2022/09/29 10:44:31;;;;;;;3.80;2.50;;;;;;;;;;10406690;22;20035;-87
2022/09/29 10:48:34;;;;;;;13.80;7.43;;;;;;;;;;10406570;22;20020;-87
2022/09/29 10:52:42;;;;;;;3.75;2.67;;;;;;;;;;10389638;22;20115;-87
2022/09/29 10:56:48;;;;;;;3.80;2.55;;;;;;;;;;10406340;22;20020;-87
2022/09/29 11:01:06;;;;;;;3.97;2.75;;;;;;;;;;10406424;22;20031;-88
2022/09/29 11:05:18;;;;;;;3.75;2.55;;;;;;;;;;10406281;22;20054;-87
2022/09/29 11:09:35;;;;;;;3.80;2.58;;;;;;;;;;10406174;22;20015;-88
2022/09/29 11:13:40;;;;;;;4.10;2.70;;;;;;;;;;10406161;22;20098;-88
2022/09/29 11:17:49;;;;;;;4.85;2.70;;;;;;;;;;10388919;22;20024;-88
2022/09/29 11:22:21;;;;;;;4.18;2.72;;;;;;;;;;10405882;22;20090;-88
2022/09/29 11:26:34;;;;;;;7.80;2.90;;;;;;;;;;10405965;22;20015;-88
2022/09/29 11:30:49;;;;;;;4.57;2.50;;;;;;;;;;10405792;22;20073;-88
2022/09/29 11:35:19;;;;;;;4.30;2.58;;;;;;;;;;10405252;22;20380;-88
2022/09/29 11:39:36;;;;;;;6.03;2.70;;;;;;;;;;10378394;22;20046;-88
2022/09/29 11:43:46;;;;;;;4.25;2.22;;;;;;;;;;10405698;22;20340;-88
2022/09/29 11:48:14;;;;;;;6.63;2.55;;;;;;;;;;10400880;22;20486;-88
2022/09/29 11:52:35;;;;;;;4.68;2.72;;;;;;;;;;10338523;22;20059;-89
2022/09/29 11:56:45;;;;;;;5.50;2.60;;;;;;;;;;10403483;22;20494;-88
2022/09/29 12:01:10;;;;;;;4.57;2.53;;;;;;;;;;10404168;22;20027;-88
2022/09/29 12:05:21;;;;;;;3.35;2.47;;;;;;;;;;10402389;22;20098;-89
2022/09/29 12:09:54;;;;;;;4.35;2.53;;;;;;;;;;10401402;22;20103;-89
2022/09/29 12:14:03;;;;;;;5.68;2.97;;;;;;;;;;10401549;22;20043;-88
2022/09/29 12:18:15;;;;;;;6.20;3.13;;;;;;;;;;10394164;22;20024;-89
2022/09/29 12:22:19;;;;;;;;;;;;;;;;;;10403084;22;20096;-88
2022/09/29 12:26:23;;;;;;;5.93;3.40;;;;;;;;;;10384754;22;20213;-89
2022/09/29 12:30:28;;;;;;;5.75;3.35;;;;;;;;;;10384399;22;20020;-89
2022/09/29 12:34:39;;;;;;;6.75;4.00;;;;;;;;;;10385234;22;20084;-90
2022/09/29 12:38:47;;;;;;;5.13;3.40;;;;;;;;;;10403399;22;20019;-88
2022/09/29 12:53:38;;;;;;;5.72;2.60;;;;;;;;;;10386082;22;20470;-90
2022/09/29 12:58:26;;;;;;;6.55;3.17;;;;;;;;;;10380647;22;20471;-89
2022/09/29 13:03:03;;;;;;;7.40;3.70;;;;;;;;;;10404395;22;20089;-89
2022/09/29 13:07:58;;;;;;;5.75;3.42;;;;;;;;;;10357719;22;20050;-89
2022/09/29 13:12:38;;;;;;;6.13;3.58;;;;;;;;;;10355697;22;20016;-89
2022/09/29 13:17:09;;;;;;;4.15;2.90;;;;;;;;;;10400164;22;20444;-89
2022/09/29 13:21:22;;;;;;;3.55;2.55;;;;;;;;;;10403504;22;20019;-88
2022/09/29 13:25:33;;;;;;;3.85;2.63;;;;;;;;;;10403463;22;20019;-87
2022/09/29 13:29:45;;;;;;;5.40;2.70;;;;;;;;;;10387868;22;20094;-89
2022/09/29 13:33:48;;;;;;;3.38;2.17;;;;;;;;;;10403796;22;20019;-88
2022/09/29 13:37:54;;;;;;;3.58;2.20;;;;;;;;;;10385871;22;20047;-89
2022/09/29 13:41:56;;;;;;;3.28;2.20;;;;;;;;;;10385587;22;20047;-88
2022/09/29 13:46:36;;;;;;;3.10;2.10;;;;;;;;;;10385759;22;20026;-89
2022/09/29 13:50:44;;;;;;;4.18;2.60;;;;;;;;;;10401702;22;20467;-88
2022/09/29 13:54:47;;;;;;;6.03;3.13;;;;;;;;;;10384806;22;20016;-89
2022/09/29 13:59:01;;;;;;;6.30;3.50;;;;;;;;;;10387891;22;20023;-88
2022/09/29 14:03:24;;;;;;;3.90;2.30;;;;;;;;;;10405821;22;20029;-88
2022/09/29 14:07:39;;;;;;;6.18;2.92;;;;;;;;;;10405099;22;20470;-88
2022/09/29 14:11:50;;;;;;;5.53;3.10;;;;;;;;;;10389520;22;20019;-88
2022/09/29 14:16:07;;;;;;;14.02;7.65;;;;;;;;;;10362438;22;20085;-88
2022/09/29 14:20:20;;;;;;;8.43;4.78;;;;;;;;;;10388370;22;20020;-89
2022/09/29 14:24:52;;;;;;;6.40;3.60;;;;;;;;;;10402797;22;20072;-88
2022/09/29 14:29:02;;;;;;;6.47;3.85;;;;;;;;;;10405137;22;20039;-88
2022/09/29 14:33:15;;;;;;;4.28;2.28;;;;;;;;;;10404645;22;20015;-88
2022/09/29 14:37:37;;;;;;;6.47;2.58;;;;;;;;;;10403788;22;20110;-89
2022/09/29 14:41:47;;;;;;;;;;;;;;;;;;10402818;22;20020;-88
2022/09/29 14:55:41;;;;;;;2.70;2.10;;;;;;;;;;10382527;22;20019;-89
2022/09/29 15:00:02;;;;;;;5.88;2.42;;;;;;;;;;10405594;22;20028;-89
2022/09/29 15:04:11;;;;;;;3.65;2.20;;;;;;;;;;10405238;22;20098;-88
2022/09/29 15:08:27;;;;;;;9.82;2.33;;;;;;;;;;10404543;22;20016;-88
2022/09/29 15:12:33;;;;;;;3.63;2.60;;;;;;;;;;10405292;22;20529;-88
2022/09/29 15:16:47;;;;;;;6.05;2.85;;;;;;;;;;10404210;22;20391;-89
2022/09/29 15:21:03;;;;;;;3.92;2.30;;;;;;;;;;10405394;22;20751;-87
2022/09/29 15:25:20;;;;;;;2.90;2.20;;;;;;;;;;10405153;22;20023;-87
2022/09/29 15:29:24;;;;;;;4.50;2.60;;;;;;;;;;10405276;22;20570;-87
2022/09/29 15:33:29;;;;;;;3.75;2.30;;;;;;;;;;10387809;22;20019;-87
2022/09/29 15:37:58;;;;;;;6.15;2.90;;;;;;;;;;10386481;22;20020;-88
2022/09/29 15:42:02;;;;;;;4.40;2.88;;;;;;;;;;10405044;22;20028;-88
2022/09/29 15:46:17;;;;;;;5.47;3.15;;;;;;;;;;10385738;22;20047;-90
2022/09/29 15:50:30;;;;;;;7.38;3.78;;;;;;;;;;10403537;22;20072;-88
2022/09/29 15:54:36;;;;;;;5.90;3.47;;;;;;;;;;10386711;22;20437;-88
2022/09/29 15:58:46;;;;;;;7.88;4.07;;;;;;;;;;10402686;22;20440;-88
2022/09/29 16:03:01;;;;;;;9.68;4.20;;;;;;;;;;10403417;22;20333;-88
2022/09/29 16:07:04;;;;;;;7.57;4.03;;;;;;;;;;10403850;22;20066;-88
2022/09/29 16:11:09;;;;;;;9.65;5.35;;;;;;;;;;10359860;22;20023;-88
2022/09/29 16:15:19;;;;;;;22.15;11.13;;;;;;;;;;10385802;22;20019;-87
2022/09/29 16:19:26;;;;;;;18.25;9.95;;;;;;;;;;10390664;22;20344;-88
2022/09/29 16:23:36;;;;;;;14.52;8.77;;;;;;;;;;10402536;22;20054;-88
2022/09/29 16:27:45;;;;;;;10.18;5.80;;;;;;;;;;10403227;22;20451;-88
2022/09/29 16:31:49;;;;;;;8.95;5.25;;;;;;;;;;10399383;22;20173;-88
2022/09/29 16:36:14;;;;;;;10.30;4.97;;;;;;;;;;10386502;22;20019;-87
2022/09/29 16:40:24;;;;;;;6.93;4.40;;;;;;;;;;10403064;22;20023;-87
2022/09/29 16:44:30;;;;;;;12.48;5.03;;;;;;;;;;10402661;22;20102;-88
2022/09/29 16:48:40;;;;;;;12.30;5.63;;;;;;;;;;10386044;22;20034;-88
2022/09/29 16:52:46;;;;;;;113.57;46.30;;;;;;;;;;10403075;22;20515;-89
2022/09/29 16:57:08;;;;;;;94.57;38.22;;;;;;;;;;10402490;22;20766;-89
2022/09/29 17:01:11;;;;;;;169.10;61.33;;;;;;;;;;10402799;22;20084;-89
2022/09/29 17:05:15;;;;;;;71.82;33.47;;;;;;;;;;10386182;22;20778;-88
2022/09/29 17:09:23;;;;;;;130.18;41.28;;;;;;;;;;10386260;22;20015;-87
2022/09/29 17:13:30;;;;;;;188.68;71.70;;;;;;;;;;10402732;22;20020;-89
2022/09/29 17:17:34;;;;;;;106.00;45.20;;;;;;;;;;10398162;22;20023;-86
2022/09/29 17:21:36;;;;;;;123.93;54.40;;;;;;;;;;10386212;22;20021;-87
2022/09/29 17:25:45;;;;;;;40.78;22.40;;;;;;;;;;10383893;22;20479;-89
2022/09/29 17:29:47;;;;;;;23.70;13.15;;;;;;;;;;10400302;22;20030;-87
2022/09/29 17:33:50;;;;;;;35.20;16.00;;;;;;;;;;10383126;22;20035;-87
2022/09/29 17:37:52;;;;;;;33.50;17.08;;;;;;;;;;10382146;22;20019;-88
2022/09/29 17:41:59;;;;;;;34.63;15.05;;;;;;;;;;10379887;22;20062;-89
2022/09/29 17:46:02;;;;;;;28.65;15.18;;;;;;;;;;10399868;22;20081;-87
2022/09/29 17:50:19;;;;;;;27.88;15.10;;;;;;;;;;10385925;22;20078;-88
2022/09/29 17:54:29;;;;;;;71.18;29.75;;;;;;;;;;10403487;22;20092;-88
2022/09/29 17:58:50;;;;;;;171.95;62.67;;;;;;;;;;10403831;22;20043;-87
2022/09/29 18:03:39;;;;;;;206.20;70.13;;;;;;;;;;10403194;22;20020;-87
2022/09/29 18:08:00;;;;;;;27.65;13.82;;;;;;;;;;10403759;22;20040;-89
2022/09/29 18:12:23;;;;;;;49.65;21.75;;;;;;;;;;10403712;22;20073;-89
2022/09/29 18:17:16;;;;;;;107.15;48.50;;;;;;;;;;10386442;22;20019;-87
2022/09/29 18:21:41;;;;;;;84.88;38.30;;;;;;;;;;10401456;22;20019;-86
2022/09/29 18:25:45;;;;;;;65.47;33.65;;;;;;;;;;10385311;22;20023;-87
2022/09/29 18:29:50;;;;;;;49.42;28.50;;;;;;;;;;10385681;22;20022;-89
2022/09/29 18:33:55;;;;;;;52.92;28.67;;;;;;;;;;10385867;22;20028;-89
2022/09/29 18:37:59;;;;;;;52.20;27.10;;;;;;;;;;10385864;22;20008;-88
2022/09/29 18:42:02;;;;;;;50.33;31.33;;;;;;;;;;10386351;22;20019;-87
2022/09/29 18:46:05;;;;;;;59.45;31.30;;;;;;;;;;10389631;22;20016;-85
2022/09/29 18:50:13;;;;;;;33.53;16.88;;;;;;;;;;10389701;22;20020;-87
2022/09/29 18:54:16;;;;;;;44.10;21.45;;;;;;;;;;10406599;22;20043;-87
2022/09/29 18:58:21;;;;;;;119.78;46.50;;;;;;;;;;10389595;22;20016;-87
2022/09/29 19:02:24;;;;;;;79.07;36.88;;;;;;;;;;10389449;22;20099;-85
2022/09/29 19:06:28;;;;;;;32.63;19.27;;;;;;;;;;10389540;22;20020;-88
2022/09/29 19:10:33;;;;;;;64.78;32.13;;;;;;;;;;10389171;22;20054;-87
2022/09/29 19:14:37;;;;;;;19.83;9.98;;;;;;;;;;10389213;22;20046;-86
2022/09/29 19:18:40;;;;;;;27.83;14.82;;;;;;;;;;10388958;22;20024;-85
2022/09/29 19:22:45;;;;;;;40.75;23.35;;;;;;;;;;10389565;22;20020;-88
2022/09/29 19:26:48;;;;;;;26.50;18.27;;;;;;;;;;10389756;22;20015;-86
2022/09/29 19:30:51;;;;;;;32.15;16.80;;;;;;;;;;10389807;22;20019;-87
2022/09/29 19:34:54;;;;;;;43.58;25.65;;;;;;;;;;10389644;22;20042;-87
2022/09/29 19:38:58;;;;;;;62.78;30.85;;;;;;;;;;10389112;22;20016;-87
2022/09/29 19:43:03;;;;;;;66.30;31.90;;;;;;;;;;10389257;22;20090;-87
2022/09/29 19:47:07;;;;;;;49.92;23.15;;;;;;;;;;10407625;22;20440;-86
2022/09/29 19:55:37;;;;;;;52.58;19.58;;;;;;;;;;10405424;22;20387;-88
2022/09/29 19:59:42;;;;;;;231.88;49.80;;;;;;;;;;10388315;22;20023;-87
2022/09/29 20:03:46;;;;;;;36.95;16.85;;;;;;;;;;10388484;22;20090;-86
2022/09/29 20:07:50;;;;;;;41.65;18.67;;;;;;;;;;10388388;22;20015;-87
2022/09/29 20:11:55;;;;;;;45.08;19.88;;;;;;;;;;10388376;22;20054;-87
2022/09/29 20:15:57;;;;;;;43.75;20.15;;;;;;;;;;10388009;22;20020;-87
2022/09/29 20:20:00;;;;;;;384.50;82.82;;;;;;;;;;10387988;22;20031;-86
2022/09/29 20:24:03;;;;;;;136.30;48.78;;;;;;;;;;10388201;22;20403;-86
2022/09/29 20:28:07;;;;;;;87.93;37.70;;;;;;;;;;10388125;22;20023;-87
2022/09/29 20:32:09;;;;;;;50.65;22.52;;;;;;;;;;10388046;22;20094;-86
2022/09/29 20:36:12;;;;;;;78.43;24.58;;;;;;;;;;10388116;22;20137;-87
2022/09/29 20:40:15;;;;;;;50.58;20.35;;;;;;;;;;10387827;22;20022;-86
2022/09/29 20:44:24;;;;;;;81.85;36.25;;;;;;;;;;10387497;22;20019;-86
2022/09/29 20:48:28;;;;;;;58.20;25.58;;;;;;;;;;10387883;22;20437;-83
2022/09/29 20:52:31;;;;;;;32.20;16.13;;;;;;;;;;10387638;22;20026;-86
2022/09/29 20:56:40;;;;;;;343.77;118.03;;;;;;;;;;10387691;22;20090;-86
2022/09/29 21:00:44;;;;;;;577.97;251.07;;;;;;;;;;10387441;22;20027;-86
2022/09/29 21:04:46;;;;;;;199.38;80.93;;;;;;;;;;10387425;22;20054;-87
2022/09/29 21:08:49;;;;;;;249.43;98.45;;;;;;;;;;10387593;22;20023;-87
2022/09/29 21:12:53;;;;;;;326.50;119.30;;;;;;;;;;10387552;22;20026;-85
2022/09/29 21:16:58;;;;;;;222.18;88.35;;;;;;;;;;10387186;22;20360;-86
2022/09/29 21:21:02;;;;;;;157.90;72.50;;;;;;;;;;10404275;22;20037;-86
2022/09/29 21:25:05;;;;;;;173.30;75.75;;;;;;;;;;10387198;22;20080;-87
2022/09/29 21:29:13;;;;;;;166.05;53.88;;;;;;;;;;10387461;22;20348;-87
2022/09/29 21:33:17;;;;;;;236.10;72.47;;;;;;;;;;10405065;22;20022;-87
2022/09/29 21:37:20;;;;;;;202.38;57.33;;;;;;;;;;10387027;22;20022;-85
2022/09/29 21:41:26;;;;;;;184.90;57.97;;;;;;;;;;10387231;22;20522;-86
2022/09/29 21:45:28;;;;;;;55.70;24.55;;;;;;;;;;10359854;22;20385;-86
2022/09/29 21:49:32;;;;;;;31.75;14.77;;;;;;;;;;10387259;22;20015;-86
2022/09/29 21:53:37;;;;;;;547.15;136.65;;;;;;;;;;10387053;22;20489;-86
2022/09/29 21:57:39;;;;;;;304.00;74.68;;;;;;;;;;10387013;22;20038;-86
2022/09/29 22:01:43;;;;;;;99.10;28.27;;;;;;;;;;10386588;22;20047;-87
2022/09/29 22:05:47;;;;;;;73.53;25.17;;;;;;;;;;10387040;22;20387;-87
2022/09/29 22:09:50;;;;;;;56.28;24.33;;;;;;;;;;10386850;22;20039;-86
2022/09/29 22:13:54;;;;;;;88.78;37.90;;;;;;;;;;10387195;22;20545;-88
2022/09/29 22:17:57;;;;;;;92.43;35.88;;;;;;;;;;10387479;22;20079;-86
2022/09/29 22:22:01;;;;;;;52.78;25.25;;;;;;;;;;10389931;22;20020;-86
2022/09/29 22:26:03;;;;;;;84.55;36.47;;;;;;;;;;10390201;22;20150;-86
2022/09/29 22:30:07;;;;;;;214.88;64.07;;;;;;;;;;10390166;22;20340;-86
2022/09/29 22:34:10;;;;;;;172.95;55.30;;;;;;;;;;10390110;22;20030;-87
2022/09/29 22:38:14;;;;;;;66.25;28.05;;;;;;;;;;10389874;22;20050;-86
2022/09/29 22:42:17;;;;;;;143.95;56.95;;;;;;;;;;10389751;22;20417;-86
2022/09/29 22:46:20;;;;;;;72.75;31.95;;;;;;;;;;10389972;22;20020;-87
2022/09/29 22:50:24;;;;;;;259.02;85.68;;;;;;;;;;10389751;22;20022;-86
2022/09/29 22:54:28;;;;;;;131.75;49.40;;;;;;;;;;10388524;22;20020;-87
2022/09/29 22:58:30;;;;;;;81.95;35.65;;;;;;;;;;10389066;22;20297;-87
2022/09/29 23:02:33;;;;;;;91.45;38.78;;;;;;;;;;10389582;22;20027;-86
2022/09/29 23:06:36;;;;;;;90.30;38.95;;;;;;;;;;10389047;22;20039;-87
2022/09/29 23:10:47;;;;;;;204.60;88.72;;;;;;;;;;10389573;22;20435;-86
2022/09/29 23:14:49;;;;;;;160.95;71.43;;;;;;;;;;10406345;22;20087;-86
2022/09/29 23:18:54;;;;;;;162.38;73.05;;;;;;;;;;10389258;22;20470;-87
2022/09/29 23:22:56;;;;;;;142.07;65.03;;;;;;;;;;10389189;22;20015;-87
2022/09/29 23:27:00;;;;;;;85.80;38.90;;;;;;;;;;10389252;22;20023;-86
2022/09/29 23:31:04;;;;;;;64.38;29.35;;;;;;;;;;10389057;22;20096;-86
2022/09/29 23:35:07;;;;;;;66.20;28.52;;;;;;;;;;10389152;22;20019;-87
2022/09/29 23:39:10;;;;;;;45.63;19.92;;;;;;;;;;10388916;22;20022;-87
2022/09/29 23:43:13;;;;;;;38.03;17.02;;;;;;;;;;10389062;22;20016;-87
2022/09/29 23:47:16;;;;;;;38.67;17.92;;;;;;;;;;10388774;22;20486;-86
2022/09/29 23:51:19;;;;;;;44.65;20.58;;;;;;;;;;10388818;22;20015;-86
2022/09/29 23:55:21;;;;;;;40.45;18.98;;;;;;;;;;10388785;22;20098;-86
2022/09/29 23:59:26;;;;;;;38.38;17.38;;;;;;;;;;10388532;22;20020;-87
